Time;durP1;ratioP1;P1;durP2;ratioP2;P2;SDS_P1;SDS_P2;PMS_P1;PMS_P2;Temp;Humidity;BMP_temperature;BMP_pressure;BME280_temperature;BME280_humidity;BME280_pressure;Samples;Min_cycle;Max_cycle;Signal;HPM_P1;HPM_P2
2023/07/20 00:01:31;;;;;;;2.22;1.67;;;20.60;97.40;;;;;;5052863;28;20236;-70
2023/07/20 00:03:59;;;;;;;4.22;1.65;;;20.60;97.50;;;;;;5037530;28;20182;-69
2023/07/20 00:06:27;;;;;;;4.10;1.52;;;20.50;97.70;;;;;;5036663;28;20178;-69
2023/07/20 00:08:58;;;;;;;4.90;1.55;;;20.50;97.80;;;;;;5037183;28;20240;-69
2023/07/20 00:11:26;;;;;;;4.72;1.80;;;20.50;97.80;;;;;;5020998;28;20181;-69
2023/07/20 00:13:52;;;;;;;2.67;1.60;;;20.50;97.80;;;;;;5037242;28;20201;-68
2023/07/20 00:16:18;;;;;;;4.07;1.85;;;20.50;98.20;;;;;;5037414;28;20202;-69
2023/07/20 00:18:46;;;;;;;4.00;1.98;;;20.50;98.00;;;;;;5036913;28;20174;-68
2023/07/20 00:21:11;;;;;;;4.78;2.10;;;20.40;98.20;;;;;;5037168;28;20182;-69
2023/07/20 00:23:37;;;;;;;4.15;2.28;;;20.30;98.30;;;;;;5042607;28;20201;-69
2023/07/20 00:26:03;;;;;;;3.00;1.83;;;20.30;98.40;;;;;;5037188;28;20186;-69
2023/07/20 00:28:31;;;;;;;2.38;1.70;;;20.30;98.60;;;;;;5037258;28;20227;-70
2023/07/20 00:31:02;;;;;;;2.75;1.67;;;20.30;99.20;;;;;;5036778;28;20178;-70
2023/07/20 00:33:30;;;;;;;3.90;2.05;;;20.20;99.30;;;;;;5049113;28;20186;-69
2023/07/20 00:35:56;;;;;;;4.22;1.90;;;20.10;99.80;;;;;;5032644;28;20235;-68
2023/07/20 00:38:25;;;;;;;2.17;1.52;;;20.00;99.80;;;;;;5033940;28;20232;-70
2023/07/20 00:40:53;;;;;;;2.67;1.60;;;19.90;99.90;;;;;;5017149;28;20182;-70
2023/07/20 00:43:19;;;;;;;2.75;1.65;;;19.90;99.90;;;;;;5027624;28;20217;-70
2023/07/20 00:45:45;;;;;;;2.92;1.75;;;19.80;99.90;;;;;;5033339;28;20174;-68
2023/07/20 00:48:12;;;;;;;2.15;1.52;;;19.70;99.90;;;;;;5023674;28;20193;-69
2023/07/20 00:50:41;;;;;;;2.15;1.67;;;19.60;99.90;;;;;;5037665;28;20216;-68
2023/07/20 00:53:07;;;;;;;3.53;1.73;;;19.60;99.90;;;;;;5036063;28;20213;-69
2023/07/20 00:55:33;;;;;;;2.40;1.40;;;19.50;99.90;;;;;;5036585;28;20240;-69
2023/07/20 00:58:02;;;;;;;1.77;1.50;;;19.50;99.90;;;;;;5036543;28;20293;-69
2023/07/20 01:00:30;;;;;;;3.25;1.60;;;19.50;99.90;;;;;;5036940;28;20170;-70
2023/07/20 01:02:56;;;;;;;2.42;1.60;;;19.40;99.90;;;;;;5036826;28;20194;-70
2023/07/20 01:05:26;;;;;;;3.22;1.60;;;19.40;99.90;;;;;;5036512;28;20340;-69
2023/07/20 01:08:02;;;;;;;2.75;1.40;;;19.40;99.90;;;;;;5036231;28;20297;-69
2023/07/20 01:10:39;;;;;;;1.65;1.42;;;19.40;99.90;;;;;;5042790;28;20177;-69
2023/07/20 01:13:09;;;;;;;1.70;1.20;;;19.40;99.90;;;;;;5024254;28;20181;-70
2023/07/20 01:15:39;;;;;;;2.25;1.60;;;19.40;99.90;;;;;;5023975;28;20210;-71
2023/07/20 01:18:05;;;;;;;2.50;1.45;;;19.40;99.90;;;;;;5036200;28;20171;-68
2023/07/20 01:20:36;;;;;;;3.22;1.60;;;19.40;99.90;;;;;;5035782;28;20189;-70
2023/07/20 01:23:19;;;;;;;2.08;1.40;;;19.40;99.90;;;;;;5035976;28;20198;-69
2023/07/20 01:25:59;;;;;;;3.63;1.67;;;19.40;99.90;;;;;;5047552;28;20185;-67
2023/07/20 01:28:30;;;;;;;2.33;1.67;;;19.30;99.90;;;;;;5049634;28;20241;-68
2023/07/20 01:31:14;;;;;;;3.53;1.60;;;19.30;99.90;;;;;;5031903;28;20178;-68
2023/07/20 01:33:41;;;;;;;3.47;1.60;;;19.30;99.90;;;;;;5039998;28;20170;-68
2023/07/20 01:36:08;;;;;;;3.25;1.60;;;19.30;99.90;;;;;;5017090;28;20175;-69
2023/07/20 01:38:35;;;;;;;2.45;1.65;;;19.20;99.90;;;;;;5052469;28;20185;-69
2023/07/20 01:41:01;;;;;;;2.55;1.60;;;19.20;99.90;;;;;;5035944;28;20177;-70
2023/07/20 01:43:27;;;;;;;3.65;1.77;;;19.20;99.90;;;;;;5030846;28;20199;-69
2023/07/20 01:45:52;;;;;;;2.55;1.38;;;19.10;99.90;;;;;;5035390;28;20174;-68
2023/07/20 01:48:18;;;;;;;2.25;1.55;;;19.10;99.90;;;;;;5035335;28;20417;-69
2023/07/20 01:50:44;;;;;;;2.25;1.30;;;19.10;99.90;;;;;;5035323;28;20174;-68
2023/07/20 01:53:09;;;;;;;2.35;1.50;;;19.10;99.90;;;;;;5036006;28;20174;-69
2023/07/20 01:55:38;;;;;;;3.28;1.75;;;19.10;99.90;;;;;;5035285;28;20210;-69
2023/07/20 01:58:03;;;;;;;2.30;1.70;;;19.10;99.90;;;;;;5050432;28;20188;-69
2023/07/20 02:00:31;;;;;;;3.47;1.67;;;19.10;99.90;;;;;;5034523;28;20174;-69
2023/07/20 02:02:59;;;;;;;2.17;1.30;;;19.10;99.90;;;;;;5048831;28;20197;-69
2023/07/20 02:05:25;;;;;;;2.35;1.50;;;19.00;99.90;;;;;;5046039;28;20193;-69
2023/07/20 02:07:53;;;;;;;2.03;1.33;;;19.00;99.90;;;;;;5035416;28;20178;-69
2023/07/20 02:10:18;;;;;;;1.70;1.30;;;19.00;99.90;;;;;;5035368;28;20235;-71
2023/07/20 02:12:47;;;;;;;2.17;1.50;;;19.00;99.90;;;;;;5035115;28;20174;-69
2023/07/20 02:15:16;;;;;;;2.13;1.42;;;19.00;99.90;;;;;;5035444;28;20209;-69
2023/07/20 02:17:42;;;;;;;2.63;1.65;;;19.00;99.90;;;;;;5035081;28;20174;-68
2023/07/20 02:20:10;;;;;;;1.95;1.45;;;19.00;99.90;;;;;;5035312;28;20169;-68
2023/07/20 02:22:40;;;;;;;2.90;1.55;;;19.00;99.90;;;;;;5035106;28;20170;-69
2023/07/20 02:25:09;;;;;;;2.55;1.75;;;19.00;99.90;;;;;;5035330;28;20180;-71
2023/07/20 02:27:35;;;;;;;3.47;1.50;;;18.90;99.90;;;;;;5035204;28;20201;-69
2023/07/20 02:30:01;;;;;;;2.55;1.50;;;18.90;99.90;;;;;;5035054;28;20174;-70
2023/07/20 02:32:27;;;;;;;2.65;1.40;;;18.90;99.90;;;;;;5035024;28;20245;-70
2023/07/20 02:34:55;;;;;;;2.00;1.52;;;18.90;99.90;;;;;;5034257;28;20225;-70
2023/07/20 02:37:21;;;;;;;3.92;1.70;;;18.90;99.90;;;;;;5034766;28;20193;-70
2023/07/20 02:39:46;;;;;;;4.55;1.77;;;18.80;99.90;;;;;;5034575;28;20174;-69
2023/07/20 02:42:13;;;;;;;2.08;1.50;;;18.80;99.90;;;;;;5034824;28;20205;-68
2023/07/20 02:44:38;;;;;;;2.08;1.45;;;18.80;99.90;;;;;;5018493;28;20265;-70
2023/07/20 02:47:09;;;;;;;4.55;1.98;;;18.80;99.90;;;;;;5034453;28;20276;-69
2023/07/20 02:49:35;;;;;;;2.42;1.50;;;18.80;99.90;;;;;;5033992;28;20193;-69
2023/07/20 02:52:02;;;;;;;2.92;2.15;;;18.70;99.90;;;;;;5034151;28;20192;-69
2023/07/20 02:54:30;;;;;;;2.47;1.67;;;18.70;99.90;;;;;;5034682;28;20202;-69
2023/07/20 02:56:57;;;;;;;8.32;1.98;;;18.70;99.90;;;;;;5033758;28;20182;-69
2023/07/20 02:59:25;;;;;;;2.88;1.50;;;18.70;99.90;;;;;;5034199;28;20170;-69
2023/07/20 03:01:54;;;;;;;1.75;1.45;;;18.70;99.90;;;;;;5035812;28;20210;-73
2023/07/20 03:04:19;;;;;;;2.50;1.60;;;18.60;99.90;;;;;;5030355;28;20277;-73
2023/07/20 03:06:47;;;;;;;2.33;1.70;;;18.60;99.90;;;;;;5018807;28;20229;-75
2023/07/20 03:09:13;;;;;;;3.45;1.30;;;18.60;99.90;;;;;;5033704;28;20176;-73
2023/07/20 03:11:39;;;;;;;1.70;1.40;;;18.50;99.90;;;;;;5033060;28;20185;-74
2023/07/20 03:14:04;;;;;;;1.70;1.40;;;18.50;99.90;;;;;;5033678;28;20205;-74
2023/07/20 03:16:32;;;;;;;2.85;1.50;;;18.40;99.90;;;;;;5034208;28;20468;-74
2023/07/20 03:19:00;;;;;;;2.83;1.50;;;18.40;99.90;;;;;;5034152;28;20185;-74
2023/07/20 03:21:26;;;;;;;3.67;1.50;;;18.40;99.90;;;;;;5034808;28;20273;-74
2023/07/20 03:23:52;;;;;;;1.63;1.27;;;18.30;99.90;;;;;;5034157;28;20291;-74
2023/07/20 03:26:19;;;;;;;1.90;1.42;;;18.30;99.90;;;;;;5033282;28;20198;-71
2023/07/20 03:28:49;;;;;;;3.28;1.73;;;18.30;99.90;;;;;;5034078;28;20178;-75
2023/07/20 03:31:15;;;;;;;3.25;1.50;;;18.30;99.90;;;;;;5033885;28;20182;-74
2023/07/20 03:33:43;;;;;;;3.35;1.80;;;18.30;99.90;;;;;;5033915;28;20185;-74
2023/07/20 03:36:12;;;;;;;2.50;1.58;;;18.20;99.90;;;;;;5030878;28;20236;-72
2023/07/20 03:38:37;;;;;;;6.47;1.70;;;18.20;99.90;;;;;;5033796;28;20200;-72
2023/07/20 03:41:09;;;;;;;1.60;1.50;;;18.20;99.90;;;;;;5030272;28;20199;-74
2023/07/20 03:43:39;;;;;;;3.58;1.70;;;18.20;99.90;;;;;;5042942;28;20247;-74
2023/07/20 03:46:06;;;;;;;2.88;1.92;;;18.20;99.90;;;;;;5033851;28;20166;-74
2023/07/20 03:48:33;;;;;;;3.22;1.60;;;18.20;99.90;;;;;;5033598;28;20218;-72
2023/07/20 03:51:01;;;;;;;2.45;1.45;;;18.20;99.90;;;;;;5033894;28;20178;-73
2023/07/20 03:53:27;;;;;;;5.07;1.50;;;18.20;99.90;;;;;;5035807;28;20340;-74
2023/07/20 03:55:53;;;;;;;2.67;1.58;;;18.20;99.90;;;;;;5043050;28;20231;-72
2023/07/20 03:58:19;;;;;;;3.58;2.10;;;18.20;99.90;;;;;;5035162;28;20173;-70
2023/07/20 04:00:50;;;;;;;2.50;1.65;;;18.20;99.90;;;;;;5033564;28;20202;-74
2023/07/20 04:03:17;;;;;;;2.58;2.00;;;18.10;99.90;;;;;;5033930;28;20205;-71
2023/07/20 04:05:46;;;;;;;4.70;1.88;;;18.10;99.90;;;;;;5033523;28;20246;-73
2023/07/20 04:08:12;;;;;;;3.20;1.80;;;18.10;99.90;;;;;;5034962;28;20229;-75
2023/07/20 04:10:38;;;;;;;3.08;1.55;;;18.10;99.90;;;;;;5037819;28;20181;-74
2023/07/20 04:13:04;;;;;;;3.28;1.80;;;18.00;99.90;;;;;;5036973;28;20178;-74
2023/07/20 04:15:31;;;;;;;2.38;1.70;;;18.00;99.90;;;;;;5033969;28;20201;-75
2023/07/20 04:17:56;;;;;;;2.92;1.45;;;18.00;99.90;;;;;;5017353;28;20182;-74
2023/07/20 04:20:23;;;;;;;2.72;1.63;;;18.00;99.90;;;;;;5018518;28;20202;-70
2023/07/20 04:22:49;;;;;;;4.15;1.70;;;18.00;99.90;;;;;;5037436;28;20205;-73
2023/07/20 04:25:17;;;;;;;2.00;1.35;;;18.00;99.90;;;;;;5037315;28;20182;-75
2023/07/20 04:27:46;;;;;;;2.00;1.67;;;18.00;99.90;;;;;;5036837;28;20202;-76
2023/07/20 04:30:12;;;;;;;3.03;1.80;;;18.00;99.90;;;;;;5036876;28;20269;-75
2023/07/20 04:32:45;;;;;;;2.65;1.70;;;18.00;99.90;;;;;;5037075;28;20266;-73
2023/07/20 04:35:37;;;;;;;2.90;1.55;;;18.10;99.90;;;;;;5037850;28;20272;-71
2023/07/20 04:38:02;;;;;;;2.67;1.70;;;18.10;99.90;;;;;;5032757;28;20178;-74
2023/07/20 04:40:28;;;;;;;2.60;1.77;;;18.10;99.90;;;;;;5036865;28;20198;-75
2023/07/20 04:42:56;;;;;;;2.70;1.67;;;18.10;99.90;;;;;;5036382;28;20193;-74
2023/07/20 04:45:24;;;;;;;4.10;1.77;;;18.20;99.90;;;;;;5036155;28;20189;-75
2023/07/20 04:47:52;;;;;;;2.97;1.85;;;18.20;99.90;;;;;;5039477;28;20178;-69
2023/07/20 04:50:17;;;;;;;3.10;1.90;;;18.20;99.90;;;;;;5036179;28;20180;-76
2023/07/20 04:52:46;;;;;;;3.13;1.80;;;18.20;99.90;;;;;;5036278;28;20174;-75
2023/07/20 04:55:11;;;;;;;2.75;1.58;;;18.30;99.90;;;;;;5036542;28;20198;-72
2023/07/20 04:57:39;;;;;;;3.00;1.73;;;18.30;99.90;;;;;;5036631;28;20189;-74
2023/07/20 05:00:06;;;;;;;3.65;2.20;;;18.30;99.90;;;;;;5032928;28;20210;-74
2023/07/20 05:02:31;;;;;;;2.25;1.70;;;18.30;99.90;;;;;;5035880;28;20186;-74
2023/07/20 05:04:59;;;;;;;3.75;1.40;;;18.30;99.90;;;;;;5036565;28;20433;-74
2023/07/20 05:07:25;;;;;;;2.47;1.65;;;18.30;99.90;;;;;;5038141;28;20213;-74
2023/07/20 05:09:53;;;;;;;2.47;1.30;;;18.30;99.90;;;;;;5049898;28;20207;-73
2023/07/20 05:12:21;;;;;;;3.78;1.63;;;18.40;99.90;;;;;;5038633;28;20205;-75
2023/07/20 05:14:46;;;;;;;4.18;1.83;;;18.40;99.90;;;;;;5021560;28;20259;-74
2023/07/20 05:17:17;;;;;;;6.25;4.50;;;18.40;99.90;;;;;;5035560;28;20173;-75
2023/07/20 05:19:45;;;;;;;3.45;2.80;;;18.40;99.90;;;;;;5034889;28;20229;-75
2023/07/20 05:22:15;;;;;;;3.67;2.22;;;18.40;99.90;;;;;;5036384;28;20174;-74
2023/07/20 05:24:41;;;;;;;4.10;2.15;;;18.40;99.90;;;;;;5036128;28;20189;-74
2023/07/20 05:27:06;;;;;;;3.45;1.92;;;18.40;99.90;;;;;;5035975;28;20285;-74
2023/07/20 05:29:34;;;;;;;6.28;2.58;;;18.50;99.90;;;;;;5035444;28;20170;-75
2023/07/20 05:32:00;;;;;;;3.53;2.05;;;18.50;99.90;;;;;;5035292;28;20264;-74
2023/07/20 05:34:27;;;;;;;4.50;2.30;;;18.50;99.90;;;;;;5035765;28;20289;-75
2023/07/20 05:36:55;;;;;;;6.20;2.58;;;18.60;99.90;;;;;;5034705;28;20174;-71
2023/07/20 05:39:25;;;;;;;5.03;2.20;;;18.60;99.90;;;;;;5019269;28;20191;-74
2023/07/20 05:41:51;;;;;;;5.75;2.30;;;18.60;99.90;;;;;;5022258;28;20178;-76
2023/07/20 05:44:21;;;;;;;3.55;2.40;;;18.70;99.90;;;;;;5035245;28;20182;-76
2023/07/20 05:46:51;;;;;;;6.95;2.83;;;18.80;99.90;;;;;;5035530;28;20265;-67
2023/07/20 05:49:17;;;;;;;3.17;2.53;;;18.80;99.90;;;;;;5015548;28;20191;-71
2023/07/20 05:51:46;;;;;;;4.78;2.97;;;18.80;99.90;;;;;;5031870;28;20182;-76
2023/07/20 05:54:12;;;;;;;6.20;2.80;;;18.80;99.90;;;;;;5041981;28;20285;-75
2023/07/20 05:56:37;;;;;;;4.60;3.05;;;18.90;99.90;;;;;;5016009;28;20261;-76
2023/07/20 05:59:05;;;;;;;7.82;3.47;;;18.90;99.90;;;;;;5025965;28;20205;-73
2023/07/20 06:01:31;;;;;;;5.97;3.45;;;18.90;99.90;;;;;;5035109;28;20158;-73
2023/07/20 06:03:56;;;;;;;4.80;2.75;;;18.90;99.90;;;;;;5016217;28;20181;-76
2023/07/20 06:06:22;;;;;;;5.15;2.60;;;19.00;99.90;;;;;;5015353;28;20198;-75
2023/07/20 06:08:48;;;;;;;3.28;2.80;;;19.00;99.90;;;;;;5027936;28;20193;-73
2023/07/20 06:11:13;;;;;;;4.72;2.90;;;19.10;99.90;;;;;;5038555;28;20178;-76
2023/07/20 06:13:44;;;;;;;3.50;2.80;;;19.10;99.90;;;;;;5034806;28;20205;-76
2023/07/20 06:16:09;;;;;;;4.22;2.63;;;19.20;99.90;;;;;;5039632;28;20256;-76
2023/07/20 06:18:35;;;;;;;3.97;2.85;;;19.20;99.90;;;;;;5045680;28;20250;-76
2023/07/20 06:21:00;;;;;;;4.35;3.05;;;19.20;99.90;;;;;;5035118;28;20188;-72
2023/07/20 06:23:26;;;;;;;3.88;2.92;;;19.30;99.90;;;;;;5035111;28;20228;-73
2023/07/20 06:25:54;;;;;;;6.47;3.45;;;19.30;99.90;;;;;;5034446;28;20201;-73
2023/07/20 06:28:24;;;;;;;5.55;2.85;;;19.40;99.90;;;;;;5034873;28;20209;-71
2023/07/20 06:30:51;;;;;;;4.75;2.78;;;19.40;99.90;;;;;;5034726;28;20178;-76
2023/07/20 06:33:17;;;;;;;4.75;2.63;;;19.50;99.90;;;;;;5034493;28;20201;-76
2023/07/20 06:35:45;;;;;;;3.90;2.63;;;19.50;99.90;;;;;;5034785;28;20221;-76
2023/07/20 06:38:11;;;;;;;2.78;2.35;;;19.60;99.90;;;;;;5034255;28;20209;-76
2023/07/20 06:40:36;;;;;;;3.90;2.72;;;19.60;99.90;;;;;;5033610;28;20166;-76
2023/07/20 06:43:04;;;;;;;5.50;2.47;;;19.70;99.90;;;;;;5035292;28;20208;-75
2023/07/20 06:45:30;;;;;;;4.10;2.55;;;19.70;99.90;;;;;;5026378;28;20179;-76
2023/07/20 06:47:56;;;;;;;3.55;2.78;;;19.70;99.90;;;;;;5039349;28;20232;-72
2023/07/20 06:50:23;;;;;;;4.70;2.78;;;19.80;99.90;;;;;;5034552;28;20291;-76
2023/07/20 06:52:49;;;;;;;5.13;2.90;;;19.80;99.90;;;;;;5049652;28;20312;-72
2023/07/20 06:55:15;;;;;;;3.45;2.67;;;19.90;99.90;;;;;;5033790;28;20308;-76
2023/07/20 06:57:41;;;;;;;3.40;2.67;;;19.90;99.90;;;;;;5034093;28;20244;-75
2023/07/20 07:00:09;;;;;;;4.75;2.65;;;20.00;99.90;;;;;;5037328;28;20166;-71
2023/07/20 07:02:35;;;;;;;4.70;2.65;;;20.00;99.90;;;;;;5038186;28;20175;-75
2023/07/20 07:05:03;;;;;;;2.63;2.00;;;20.10;99.90;;;;;;5037943;28;20261;-77
2023/07/20 07:07:29;;;;;;;4.60;2.72;;;20.20;99.90;;;;;;5032041;28;20186;-76
2023/07/20 07:09:59;;;;;;;3.35;2.55;;;20.20;99.90;;;;;;5021144;28;20223;-76
2023/07/20 07:12:25;;;;;;;3.60;2.50;;;20.30;99.90;;;;;;5032131;28;20477;-77
2023/07/20 07:14:51;;;;;;;5.65;2.75;;;20.30;99.90;;;;;;5049176;28;20539;-76
2023/07/20 07:17:16;;;;;;;5.53;3.28;;;20.40;99.90;;;;;;5034106;28;20170;-76
2023/07/20 07:19:42;;;;;;;3.17;2.70;;;20.50;99.90;;;;;;5045798;28;20174;-76
2023/07/20 07:22:08;;;;;;;3.90;2.70;;;20.50;99.90;;;;;;5034292;28;20184;-76
2023/07/20 07:24:40;;;;;;;5.65;3.92;;;20.50;99.90;;;;;;5038372;28;20170;-76
2023/07/20 07:27:08;;;;;;;5.50;2.92;;;20.60;99.90;;;;;;5037886;28;20199;-74
2023/07/20 07:29:33;;;;;;;4.60;3.05;;;20.60;99.90;;;;;;5033863;28;20205;-75
2023/07/20 07:31:59;;;;;;;3.63;2.80;;;20.70;99.90;;;;;;5034089;28;20204;-76
2023/07/20 07:34:27;;;;;;;2.70;2.50;;;20.60;99.90;;;;;;5033867;28;20206;-75
2023/07/20 07:36:53;;;;;;;3.95;2.47;;;20.60;99.90;;;;;;5033681;28;20186;-76
2023/07/20 07:39:19;;;;;;;6.40;3.15;;;20.60;99.90;;;;;;5033683;28;20269;-76
2023/07/20 07:41:45;;;;;;;3.88;2.80;;;20.70;99.90;;;;;;5032890;28;20198;-76
2023/07/20 07:44:10;;;;;;;2.65;2.30;;;20.70;99.90;;;;;;5037400;28;20193;-73
2023/07/20 07:46:36;;;;;;;4.07;2.88;;;20.80;99.90;;;;;;5038312;28;20217;-76
2023/07/20 07:49:04;;;;;;;4.38;2.75;;;20.80;99.90;;;;;;5029904;28;20218;-76
2023/07/20 07:51:30;;;;;;;3.42;2.75;;;20.80;99.90;;;;;;5037636;28;20178;-75
2023/07/20 07:53:55;;;;;;;3.35;2.50;;;20.90;99.90;;;;;;5038896;28;20181;-75
2023/07/20 07:56:24;;;;;;;3.97;2.67;;;21.00;99.90;;;;;;5037765;28;20181;-76
2023/07/20 07:58:52;;;;;;;3.13;2.30;;;21.00;99.90;;;;;;5037683;28;20180;-75
2023/07/20 08:01:20;;;;;;;2.63;2.35;;;21.10;99.90;;;;;;5037807;28;20276;-76
2023/07/20 08:03:53;;;;;;;3.58;2.40;;;21.10;99.90;;;;;;5037739;28;20169;-73
2023/07/20 08:06:19;;;;;;;2.88;1.88;;;21.20;99.90;;;;;;5037697;28;20229;-76
2023/07/20 08:08:45;;;;;;;3.15;2.30;;;21.20;99.90;;;;;;5037833;28;20190;-75
2023/07/20 08:11:13;;;;;;;3.38;2.40;;;21.30;99.90;;;;;;5037646;28;20185;-74
2023/07/20 08:13:38;;;;;;;2.85;2.17;;;21.30;99.90;;;;;;5053619;28;20166;-76
2023/07/20 08:16:06;;;;;;;2.90;1.77;;;21.30;99.90;;;;;;5040608;28;20339;-75
2023/07/20 08:18:32;;;;;;;2.45;1.85;;;21.30;99.90;;;;;;5039172;28;20206;-76
2023/07/20 08:20:57;;;;;;;2.15;1.80;;;21.30;99.90;;;;;;5038193;28;20220;-76
2023/07/20 08:23:23;;;;;;;3.40;2.15;;;21.30;99.90;;;;;;5045603;28;20178;-75
2023/07/20 08:25:49;;;;;;;3.85;2.10;;;21.30;99.90;;;;;;5042786;28;20213;-76
2023/07/20 08:28:16;;;;;;;2.65;1.85;;;21.40;99.90;;;;;;5048470;28;20178;-75
2023/07/20 08:30:43;;;;;;;3.92;2.00;;;21.40;99.90;;;;;;5031079;28;20211;-74
2023/07/20 08:33:23;;;;;;;5.00;1.95;;;21.40;99.90;;;;;;5057475;28;20177;-76
2023/07/20 08:35:49;;;;;;;2.53;1.73;;;21.50;99.90;;;;;;5049841;28;20194;-75
2023/07/20 08:38:14;;;;;;;4.10;2.15;;;21.60;99.90;;;;;;5041793;28;20201;-75
2023/07/20 08:40:44;;;;;;;1.77;1.67;;;21.60;99.90;;;;;;5047845;28;20177;-76
2023/07/20 08:43:18;;;;;;;1.67;1.40;;;21.70;99.90;;;;;;5035745;28;20262;-76
2023/07/20 08:45:47;;;;;;;2.13;1.67;;;21.70;99.90;;;;;;5041477;28;20184;-75
2023/07/20 08:48:14;;;;;;;2.83;1.60;;;21.80;99.90;;;;;;5035678;28;20217;-75
2023/07/20 08:50:41;;;;;;;2.28;1.70;;;21.80;99.90;;;;;;5036627;28;20201;-73
2023/07/20 08:53:08;;;;;;;2.35;1.55;;;21.80;99.90;;;;;;5036638;28;20181;-77
2023/07/20 08:55:37;;;;;;;2.20;1.45;;;21.90;99.90;;;;;;5043296;28;20274;-76
2023/07/20 08:58:08;;;;;;;1.83;1.50;;;22.00;99.90;;;;;;5028794;28;20170;-74
2023/07/20 09:00:36;;;;;;;1.33;1.23;;;22.00;99.90;;;;;;5036032;28;20174;-74
2023/07/20 09:03:03;;;;;;;1.92;1.40;;;22.10;99.90;;;;;;5035473;28;20201;-77
2023/07/20 09:05:31;;;;;;;1.70;1.50;;;22.20;99.90;;;;;;5035241;28;20268;-76
2023/07/20 09:07:57;;;;;;;1.58;1.30;;;22.20;99.90;;;;;;5035945;28;20349;-76
2023/07/20 09:10:24;;;;;;;2.67;1.25;;;22.30;99.90;;;;;;5035993;28;20185;-74
2023/07/20 09:12:52;;;;;;;1.95;1.30;;;22.30;99.90;;;;;;5036207;28;20192;-77
2023/07/20 09:15:24;;;;;;;2.17;1.48;;;22.40;99.90;;;;;;5035657;28;20213;-76
2023/07/20 09:17:53;;;;;;;1.63;1.20;;;22.50;99.90;;;;;;5032219;28;20228;-76
2023/07/20 09:20:21;;;;;;;1.35;1.25;;;22.60;99.90;;;;;;5019745;28;20190;-75
2023/07/20 09:22:52;;;;;;;1.77;1.20;;;22.70;99.90;;;;;;5035503;28;20217;-76
2023/07/20 09:25:22;;;;;;;1.58;1.25;;;22.80;99.90;;;;;;5035949;28;20188;-74
2023/07/20 09:27:49;;;;;;;1.98;1.40;;;22.90;99.90;;;;;;5035959;28;20202;-74
2023/07/20 09:30:17;;;;;;;1.60;1.25;;;22.90;99.90;;;;;;5035750;28;20178;-76
2023/07/20 09:32:51;;;;;;;1.73;1.38;;;22.90;99.90;;;;;;5069316;28;20170;-77
2023/07/20 09:35:18;;;;;;;3.00;1.45;;;22.90;99.90;;;;;;5056839;28;20194;-76
2023/07/20 09:38:00;;;;;;;1.67;1.33;;;23.00;99.90;;;;;;5035180;28;20176;-76
2023/07/20 09:40:28;;;;;;;2.83;2.25;;;23.00;99.90;;;;;;5026697;28;20199;-75
2023/07/20 09:43:00;;;;;;;1.67;1.50;;;23.10;99.90;;;;;;5018316;28;20261;-75
2023/07/20 09:45:38;;;;;;;3.20;1.70;;;23.20;99.90;;;;;;5069039;28;20625;-75
2023/07/20 09:48:08;;;;;;;1.88;1.30;;;23.30;99.90;;;;;;5035560;28;20178;-74
2023/07/20 09:50:41;;;;;;;2.30;1.30;;;23.30;99.90;;;;;;5035731;28;20177;-75
2023/07/20 09:53:07;;;;;;;2.35;1.30;;;23.40;99.90;;;;;;5033050;28;20188;-74
2023/07/20 09:55:37;;;;;;;2.50;1.30;;;23.50;99.90;;;;;;5035070;28;20194;-74
2023/07/20 09:58:03;;;;;;;1.60;1.20;;;23.60;99.90;;;;;;5034640;28;20297;-73
2023/07/20 10:00:29;;;;;;;1.30;1.20;;;23.60;99.90;;;;;;5035630;28;20261;-74
2023/07/20 10:02:57;;;;;;;1.60;1.20;;;23.70;99.90;;;;;;5035427;28;20222;-74
2023/07/20 10:05:27;;;;;;;1.10;1.00;;;23.80;99.90;;;;;;5035303;28;20174;-76
2023/07/20 10:07:54;;;;;;;1.48;1.13;;;23.90;99.90;;;;;;5034649;28;20194;-72
2023/07/20 10:10:19;;;;;;;2.17;1.17;;;23.90;99.90;;;;;;5034752;28;20445;-73
2023/07/20 10:12:48;;;;;;;1.20;1.00;;;24.10;99.90;;;;;;5034473;28;20186;-74
2023/07/20 10:15:24;;;;;;;2.00;1.17;;;24.20;99.90;;;;;;5035251;28;20260;-73
2023/07/20 10:17:55;;;;;;;1.45;1.10;;;24.30;99.90;;;;;;5035047;28;20241;-73
2023/07/20 10:20:21;;;;;;;1.60;1.50;;;24.40;99.90;;;;;;5035013;28;20173;-73
2023/07/20 10:22:50;;;;;;;1.20;1.10;;;24.50;99.90;;;;;;5034649;28;20204;-72
2023/07/20 10:25:19;;;;;;;1.58;1.20;;;24.60;99.90;;;;;;5034846;28;20193;-72
2023/07/20 10:27:46;;;;;;;2.88;1.02;;;24.70;99.90;;;;;;5035548;28;20348;-72
2023/07/20 10:30:12;;;;;;;1.40;1.02;;;24.70;99.90;;;;;;5034535;28;20198;-72
2023/07/20 10:32:41;;;;;;;1.30;1.00;;;24.80;99.90;;;;;;5035297;28;20212;-74
2023/07/20 10:35:17;;;;;;;1.40;1.20;;;24.80;99.90;;;;;;5034652;28;20217;-72
2023/07/20 10:38:01;;;;;;;2.25;1.10;;;24.70;99.90;;;;;;5034652;28;20170;-72
2023/07/20 10:40:30;;;;;;;1.00;0.80;;;24.70;99.90;;;;;;5032362;28;20194;-73
2023/07/20 10:43:09;;;;;;;2.05;1.30;;;24.70;99.90;;;;;;5044381;28;20192;-71
2023/07/20 10:45:55;;;;;;;1.10;1.00;;;24.70;99.90;;;;;;5047205;28;20188;-72
2023/07/20 10:48:22;;;;;;;1.20;1.05;;;24.70;99.90;;;;;;5043532;28;20378;-72
2023/07/20 10:51:14;;;;;;;1.20;1.10;;;24.70;99.90;;;;;;5035387;28;20166;-71
2023/07/20 10:53:40;;;;;;;2.45;1.20;;;24.70;99.90;;;;;;5045042;28;20200;-72
2023/07/20 10:56:13;;;;;;;1.50;1.15;;;24.80;99.90;;;;;;5034423;28;20193;-69
2023/07/20 10:58:39;;;;;;;1.35;1.25;;;24.90;99.90;;;;;;5064283;28;20248;-73
2023/07/20 11:01:08;;;;;;;1.70;1.05;;;24.90;99.90;;;;;;5034663;28;20174;-74
2023/07/20 11:03:39;;;;;;;1.60;1.30;;;25.00;99.90;;;;;;5051054;28;20243;-74
2023/07/20 11:06:24;;;;;;;4.20;1.23;;;25.20;99.90;;;;;;5033591;28;20186;-76
2023/07/20 11:08:59;;;;;;;1.30;1.10;;;25.50;97.40;;;;;;5044807;28;20198;-73
2023/07/20 11:11:30;;;;;;;1.23;0.98;;;25.80;99.20;;;;;;5051464;28;20236;-67
2023/07/20 11:14:00;;;;;;;1.17;0.93;;;25.80;98.80;;;;;;5052052;28;20193;-68
2023/07/20 11:16:36;;;;;;;3.15;1.15;;;25.90;99.20;;;;;;5053649;28;20173;-69
2023/07/20 11:19:02;;;;;;;3.05;1.23;;;25.90;97.70;;;;;;5044776;28;20173;-68
2023/07/20 11:21:29;;;;;;;1.95;1.05;;;25.80;98.40;;;;;;5039022;28;20181;-69
2023/07/20 11:23:57;;;;;;;2.63;1.00;;;25.70;98.00;;;;;;5036615;28;20266;-70
2023/07/20 11:26:23;;;;;;;1.35;0.90;;;25.60;97.50;;;;;;5034184;28;20198;-68
2023/07/20 11:28:52;;;;;;;1.75;1.00;;;25.50;97.40;;;;;;5033842;28;20228;-68
2023/07/20 11:31:18;;;;;;;1.08;0.82;;;25.40;97.10;;;;;;5048032;28;20235;-67
2023/07/20 11:33:44;;;;;;;1.27;0.90;;;25.30;97.50;;;;;;5037678;28;20495;-68
2023/07/20 11:36:10;;;;;;;1.10;0.85;;;25.30;97.40;;;;;;5034017;28;20300;-68
2023/07/20 11:38:41;;;;;;;1.10;1.00;;;25.20;97.20;;;;;;5034152;28;20204;-68
2023/07/20 11:41:09;;;;;;;1.25;0.98;;;25.20;96.40;;;;;;5034126;28;20181;-69
2023/07/20 11:43:37;;;;;;;1.85;0.90;;;25.20;96.80;;;;;;5039830;28;20193;-69
2023/07/20 11:46:05;;;;;;;0.90;0.80;;;25.20;96.70;;;;;;5044976;28;20192;-68
2023/07/20 11:48:33;;;;;;;1.60;0.95;;;25.20;96.60;;;;;;5028424;28;20210;-68
2023/07/20 11:50:59;;;;;;;1.55;1.20;;;25.30;96.70;;;;;;5034042;28;20210;-68
2023/07/20 11:53:25;;;;;;;2.38;1.13;;;25.30;97.30;;;;;;5033898;28;20178;-69
2023/07/20 11:55:52;;;;;;;2.05;1.00;;;25.40;97.20;;;;;;5031038;28;20279;-68
2023/07/20 11:58:18;;;;;;;1.60;1.10;;;25.50;97.40;;;;;;5030453;28;20178;-68
2023/07/20 12:00:44;;;;;;;2.05;1.30;;;25.60;97.30;;;;;;5034042;28;20267;-69
2023/07/20 12:03:11;;;;;;;2.83;1.20;;;25.80;97.10;;;;;;5033968;28;20169;-68
2023/07/20 12:05:38;;;;;;;1.33;1.00;;;25.80;97.10;;;;;;5033732;28;20196;-68
2023/07/20 12:08:04;;;;;;;2.25;1.08;;;26.00;96.70;;;;;;5030489;28;20206;-68
2023/07/20 12:10:30;;;;;;;2.47;1.00;;;26.10;96.80;;;;;;5018364;28;20178;-68
2023/07/20 12:13:05;;;;;;;1.15;0.90;;;26.20;96.70;;;;;;5030350;28;20207;-69
2023/07/20 12:15:31;;;;;;;2.00;0.90;;;26.20;95.60;;;;;;5016225;28;20190;-68
2023/07/20 12:17:59;;;;;;;4.65;0.95;;;26.30;95.80;;;;;;5033436;28;20444;-68
2023/07/20 12:20:54;;;;;;;1.10;1.00;;;26.20;94.80;;;;;;5033860;28;20186;-68
2023/07/20 12:23:19;;;;;;;2.28;1.00;;;26.20;94.50;;;;;;5033550;28;20185;-68
2023/07/20 12:25:51;;;;;;;2.15;1.10;;;26.20;94.40;;;;;;5033690;28;20212;-68
2023/07/20 12:28:19;;;;;;;1.35;1.00;;;26.10;94.40;;;;;;5033865;28;20174;-68
2023/07/20 12:30:56;;;;;;;1.08;0.90;;;26.10;94.30;;;;;;5035581;28;20236;-68
2023/07/20 12:33:22;;;;;;;1.95;1.15;;;26.10;94.20;;;;;;5038066;28;20158;-69
2023/07/20 12:35:55;;;;;;;1.30;1.02;;;26.20;94.40;;;;;;5037106;28;20248;-66
2023/07/20 12:38:24;;;;;;;1.27;0.73;;;26.30;94.30;;;;;;5039604;28;20182;-69
2023/07/20 12:40:50;;;;;;;5.60;0.93;;;26.50;94.70;;;;;;5036972;28;20193;-68
2023/07/20 12:43:15;;;;;;;1.15;0.82;;;26.70;94.30;;;;;;5036545;28;20236;-69
2023/07/20 12:45:42;;;;;;;1.55;1.10;;;27.00;94.20;;;;;;5035185;28;20178;-68
2023/07/20 12:48:09;;;;;;;1.25;0.85;;;27.20;94.10;;;;;;5179815;22;20215;-68
2023/07/20 12:50:35;;;;;;;0.95;0.88;;;27.50;93.90;;;;;;5036589;28;20202;-68
2023/07/20 12:53:03;;;;;;;1.67;0.88;;;27.60;93.10;;;;;;5036512;28;20174;-67